sensor_id;sensor_type;location;lat;lon;timestamp;temperature;humidity
8872;DHT22;4472;52.092;9.820;2023-01-20T00:00:48;1.70;99.90
8872;DHT22;4472;52.092;9.820;2023-01-20T00:03:35;1.70;99.90
8872;DHT22;4472;52.092;9.820;2023-01-20T00:06:24;1.80;99.90
8872;DHT22;4472;52.092;9.820;2023-01-20T00:09:13;1.80;99.90
8872;DHT22;4472;52.092;9.820;2023-01-20T00:12:03;1.80;99.90
8872;DHT22;4472;52.092;9.820;2023-01-20T00:14:50;1.90;99.90
8872;DHT22;4472;52.092;9.820;2023-01-20T00:17:37;1.80;99.90
8872;DHT22;4472;52.092;9.820;2023-01-20T00:20:24;1.80;99.90
8872;DHT22;4472;52.092;9.820;2023-01-20T00:23:11;1.90;99.90
8872;DHT22;4472;52.092;9.820;2023-01-20T00:26:02;1.90;99.90
8872;DHT22;4472;52.092;9.820;2023-01-20T00:28:52;3.20;99.90
8872;DHT22;4472;52.092;9.820;2023-01-20T00:31:39;1.90;99.90
8872;DHT22;4472;52.092;9.820;2023-01-20T00:34:27;1.90;99.90
8872;DHT22;4472;52.092;9.820;2023-01-20T00:37:14;1.90;99.90
8872;DHT22;4472;52.092;9.820;2023-01-20T00:40:01;2.30;99.90
8872;DHT22;4472;52.092;9.820;2023-01-20T00:42:48;1.90;99.90
8872;DHT22;4472;52.092;9.820;2023-01-20T00:45:37;1.80;99.90
8872;DHT22;4472;52.092;9.820;2023-01-20T00:48:24;1.90;99.90
8872;DHT22;4472;52.092;9.820;2023-01-20T00:51:12;1.90;99.90
8872;DHT22;4472;52.092;9.820;2023-01-20T00:53:59;1.80;99.90
8872;DHT22;4472;52.092;9.820;2023-01-20T00:56:46;1.80;99.90
8872;DHT22;4472;52.092;9.820;2023-01-20T00:59:33;1.80;99.90
8872;DHT22;4472;52.092;9.820;2023-01-20T01:02:22;1.80;99.90
8872;DHT22;4472;52.092;9.820;2023-01-20T01:05:09;1.70;99.90
8872;DHT22;4472;52.092;9.820;2023-01-20T01:07:56;1.70;99.90
8872;DHT22;4472;52.092;9.820;2023-01-20T01:10:43;1.70;99.90
8872;DHT22;4472;52.092;9.820;2023-01-20T01:13:31;1.60;99.90
8872;DHT22;4472;52.092;9.820;2023-01-20T01:16:19;1.50;99.90
8872;DHT22;4472;52.092;9.820;2023-01-20T01:19:07;1.40;99.90
8872;DHT22;4472;52.092;9.820;2023-01-20T01:21:54;1.30;99.90
8872;DHT22;4472;52.092;9.820;2023-01-20T01:24:42;1.20;99.90
8872;DHT22;4472;52.092;9.820;2023-01-20T01:27:30;1.10;99.90
8872;DHT22;4472;52.092;9.820;2023-01-20T01:30:17;1.10;99.90
8872;DHT22;4472;52.092;9.820;2023-01-20T01:33:04;1.10;99.90
8872;DHT22;4472;52.092;9.820;2023-01-20T01:35:56;1.10;99.90
8872;DHT22;4472;52.092;9.820;2023-01-20T01:38:44;1.00;99.90
8872;DHT22;4472;52.092;9.820;2023-01-20T01:41:31;1.00;99.90
8872;DHT22;4472;52.092;9.820;2023-01-20T01:44:18;1.00;99.90
8872;DHT22;4472;52.092;9.820;2023-01-20T01:47:06;1.50;99.90
8872;DHT22;4472;52.092;9.820;2023-01-20T01:49:53;0.90;99.90
8872;DHT22;4472;52.092;9.820;2023-01-20T01:52:43;0.90;99.90
8872;DHT22;4472;52.092;9.820;2023-01-20T01:55:34;1.30;99.90
8872;DHT22;4472;52.092;9.820;2023-01-20T01:58:27;0.80;99.90
8872;DHT22;4472;52.092;9.820;2023-01-20T02:01:15;0.80;99.90
8872;DHT22;4472;52.092;9.820;2023-01-20T02:04:04;0.80;99.90
8872;DHT22;4472;52.092;9.820;2023-01-20T02:06:55;0.80;99.90
8872;DHT22;4472;52.092;9.820;2023-01-20T02:09:44;0.80;99.90
8872;DHT22;4472;52.092;9.820;2023-01-20T02:12:31;0.70;99.90
8872;DHT22;4472;52.092;9.820;2023-01-20T02:15:23;0.80;99.90
8872;DHT22;4472;52.092;9.820;2023-01-20T02:18:21;0.80;99.90
8872;DHT22;4472;52.092;9.820;2023-01-20T02:21:47;0.70;99.90
8872;DHT22;4472;52.092;9.820;2023-01-20T02:28:14;0.70;99.90
8872;DHT22;4472;52.092;9.820;2023-01-20T02:31:22;0.70;99.90
8872;DHT22;4472;52.092;9.820;2023-01-20T02:34:15;0.70;99.90
8872;DHT22;4472;52.092;9.820;2023-01-20T02:37:11;0.20;99.90
8872;DHT22;4472;52.092;9.820;2023-01-20T02:40:10;0.70;99.90
8872;DHT22;4472;52.092;9.820;2023-01-20T02:43:05;0.70;99.90
8872;DHT22;4472;52.092;9.820;2023-01-20T02:45:58;0.70;99.90
8872;DHT22;4472;52.092;9.820;2023-01-20T02:48:51;0.70;99.90
8872;DHT22;4472;52.092;9.820;2023-01-20T02:51:45;0.80;99.90
8872;DHT22;4472;52.092;9.820;2023-01-20T02:54:38;0.90;99.90
8872;DHT22;4472;52.092;9.820;2023-01-20T02:57:29;1.00;99.90
8872;DHT22;4472;52.092;9.820;2023-01-20T03:00:21;1.30;99.90
8872;DHT22;4472;52.092;9.820;2023-01-20T03:03:11;1.10;99.90
8872;DHT22;4472;52.092;9.820;2023-01-20T03:06:02;1.10;99.90
8872;DHT22;4472;52.092;9.820;2023-01-20T03:09:05;1.10;99.90
8872;DHT22;4472;52.092;9.820;2023-01-20T03:11:57;1.20;99.90
8872;DHT22;4472;52.092;9.820;2023-01-20T03:14:46;1.20;99.90
8872;DHT22;4472;52.092;9.820;2023-01-20T03:17:33;1.20;99.90
8872;DHT22;4472;52.092;9.820;2023-01-20T03:20:21;1.20;99.90
8872;DHT22;4472;52.092;9.820;2023-01-20T03:23:08;1.30;99.90
8872;DHT22;4472;52.092;9.820;2023-01-20T03:25:57;1.30;99.90
8872;DHT22;4472;52.092;9.820;2023-01-20T03:28:45;1.20;99.90
8872;DHT22;4472;52.092;9.820;2023-01-20T03:31:35;1.30;99.90
8872;DHT22;4472;52.092;9.820;2023-01-20T03:34:25;1.30;99.90
8872;DHT22;4472;52.092;9.820;2023-01-20T03:37:13;1.30;99.90
8872;DHT22;4472;52.092;9.820;2023-01-20T03:40:00;1.40;99.90
8872;DHT22;4472;52.092;9.820;2023-01-20T03:42:55;1.40;99.90
8872;DHT22;4472;52.092;9.820;2023-01-20T03:45:51;1.70;99.90
8872;DHT22;4472;52.092;9.820;2023-01-20T03:48:46;1.40;99.90
8872;DHT22;4472;52.092;9.820;2023-01-20T03:51:44;1.40;99.90
8872;DHT22;4472;52.092;9.820;2023-01-20T03:54:36;1.40;99.90
8872;DHT22;4472;52.092;9.820;2023-01-20T03:57:31;1.40;99.90
8872;DHT22;4472;52.092;9.820;2023-01-20T04:00:23;1.30;99.90
8872;DHT22;4472;52.092;9.820;2023-01-20T04:03:14;1.30;99.90
8872;DHT22;4472;52.092;9.820;2023-01-20T04:06:04;1.30;99.90
8872;DHT22;4472;52.092;9.820;2023-01-20T04:08:54;1.20;99.90
8872;DHT22;4472;52.092;9.820;2023-01-20T04:11:42;1.20;99.90
8872;DHT22;4472;52.092;9.820;2023-01-20T04:14:29;1.10;99.90
8872;DHT22;4472;52.092;9.820;2023-01-20T04:17:17;1.00;99.90
8872;DHT22;4472;52.092;9.820;2023-01-20T04:20:07;0.90;99.90
8872;DHT22;4472;52.092;9.820;2023-01-20T04:22:56;0.80;99.90
8872;DHT22;4472;52.092;9.820;2023-01-20T04:25:44;0.80;99.90
8872;DHT22;4472;52.092;9.820;2023-01-20T04:28:31;0.70;99.90
8872;DHT22;4472;52.092;9.820;2023-01-20T04:31:18;0.70;99.90
8872;DHT22;4472;52.092;9.820;2023-01-20T04:34:10;0.70;99.90
8872;DHT22;4472;52.092;9.820;2023-01-20T04:37:00;0.60;99.90
8872;DHT22;4472;52.092;9.820;2023-01-20T04:39:47;0.80;99.90
8872;DHT22;4472;52.092;9.820;2023-01-20T04:42:34;0.80;99.90
8872;DHT22;4472;52.092;9.820;2023-01-20T04:45:21;0.90;99.90
8872;DHT22;4472;52.092;9.820;2023-01-20T04:48:09;0.80;99.90
8872;DHT22;4472;52.092;9.820;2023-01-20T04:50:57;0.90;99.90
8872;DHT22;4472;52.092;9.820;2023-01-20T04:53:44;0.80;99.90
8872;DHT22;4472;52.092;9.820;2023-01-20T04:56:32;0.80;99.90
8872;DHT22;4472;52.092;9.820;2023-01-20T04:59:19;0.70;99.90
8872;DHT22;4472;52.092;9.820;2023-01-20T05:02:06;0.70;99.90
8872;DHT22;4472;52.092;9.820;2023-01-20T05:04:53;0.70;99.90
8872;DHT22;4472;52.092;9.820;2023-01-20T05:07:42;0.80;99.90
8872;DHT22;4472;52.092;9.820;2023-01-20T05:10:29;0.80;99.90
8872;DHT22;4472;52.092;9.820;2023-01-20T05:13:16;0.80;99.90
8872;DHT22;4472;52.092;9.820;2023-01-20T05:16:04;0.70;99.90
8872;DHT22;4472;52.092;9.820;2023-01-20T05:18:53;0.70;99.90
8872;DHT22;4472;52.092;9.820;2023-01-20T05:21:40;0.60;99.90
8872;DHT22;4472;52.092;9.820;2023-01-20T05:24:29;0.50;99.90
8872;DHT22;4472;52.092;9.820;2023-01-20T05:27:16;0.40;99.90
8872;DHT22;4472;52.092;9.820;2023-01-20T05:30:04;0.30;99.90
8872;DHT22;4472;52.092;9.820;2023-01-20T05:32:52;0.20;99.90
8872;DHT22;4472;52.092;9.820;2023-01-20T05:35:39;0.20;99.90
8872;DHT22;4472;52.092;9.820;2023-01-20T05:38:26;0.10;99.90
8872;DHT22;4472;52.092;9.820;2023-01-20T05:41:15;0.00;99.90
8872;DHT22;4472;52.092;9.820;2023-01-20T05:44:02;0.00;99.90
8872;DHT22;4472;52.092;9.820;2023-01-20T05:46:49;0.00;99.90
8872;DHT22;4472;52.092;9.820;2023-01-20T05:49:36;-0.10;99.90
8872;DHT22;4472;52.092;9.820;2023-01-20T05:52:23;-0.10;99.90
8872;DHT22;4472;52.092;9.820;2023-01-20T05:55:10;-0.10;99.90
8872;DHT22;4472;52.092;9.820;2023-01-20T05:58:01;0.00;99.90
8872;DHT22;4472;52.092;9.820;2023-01-20T06:00:48;0.00;99.90
8872;DHT22;4472;52.092;9.820;2023-01-20T06:03:36;0.00;99.90
8872;DHT22;4472;52.092;9.820;2023-01-20T06:06:23;0.10;99.90
8872;DHT22;4472;52.092;9.820;2023-01-20T06:09:10;0.10;99.90
8872;DHT22;4472;52.092;9.820;2023-01-20T06:11:57;0.10;99.90
8872;DHT22;4472;52.092;9.820;2023-01-20T06:14:45;0.10;99.90
8872;DHT22;4472;52.092;9.820;2023-01-20T06:17:33;0.00;99.90
8872;DHT22;4472;52.092;9.820;2023-01-20T06:20:20;0.00;99.90
8872;DHT22;4472;52.092;9.820;2023-01-20T06:23:07;0.10;99.90
8872;DHT22;4472;52.092;9.820;2023-01-20T06:25:59;0.20;99.90
8872;DHT22;4472;52.092;9.820;2023-01-20T06:28:46;0.30;99.90
8872;DHT22;4472;52.092;9.820;2023-01-20T06:31:35;0.30;99.90
8872;DHT22;4472;52.092;9.820;2023-01-20T06:34:22;0.40;99.90
8872;DHT22;4472;52.092;9.820;2023-01-20T06:37:09;0.40;99.90
8872;DHT22;4472;52.092;9.820;2023-01-20T06:39:56;0.40;99.90
8872;DHT22;4472;52.092;9.820;2023-01-20T06:42:43;0.40;99.90
8872;DHT22;4472;52.092;9.820;2023-01-20T06:45:30;0.40;99.90
8872;DHT22;4472;52.092;9.820;2023-01-20T06:48:19;0.40;99.90
8872;DHT22;4472;52.092;9.820;2023-01-20T06:51:10;0.40;99.90
8872;DHT22;4472;52.092;9.820;2023-01-20T06:53:57;0.40;99.90
8872;DHT22;4472;52.092;9.820;2023-01-20T06:56:44;0.30;99.90
8872;DHT22;4472;52.092;9.820;2023-01-20T06:59:32;0.20;99.90
8872;DHT22;4472;52.092;9.820;2023-01-20T07:02:19;0.20;99.90
8872;DHT22;4472;52.092;9.820;2023-01-20T07:05:09;0.20;99.90
8872;DHT22;4472;52.092;9.820;2023-01-20T07:07:56;0.10;99.90
8872;DHT22;4472;52.092;9.820;2023-01-20T07:10:43;0.10;99.90
8872;DHT22;4472;52.092;9.820;2023-01-20T07:13:30;0.00;99.90
8872;DHT22;4472;52.092;9.820;2023-01-20T07:16:17;0.00;99.90
8872;DHT22;4472;52.092;9.820;2023-01-20T07:19:05;-0.20;99.90
8872;DHT22;4472;52.092;9.820;2023-01-20T07:21:53;-0.20;99.90
8872;DHT22;4472;52.092;9.820;2023-01-20T07:24:40;-0.30;99.90
8872;DHT22;4472;52.092;9.820;2023-01-20T07:27:27;-0.30;99.90
8872;DHT22;4472;52.092;9.820;2023-01-20T07:30:15;-0.40;99.90
8872;DHT22;4472;52.092;9.820;2023-01-20T07:33:03;-0.40;99.90
8872;DHT22;4472;52.092;9.820;2023-01-20T07:35:51;-0.50;99.90
8872;DHT22;4472;52.092;9.820;2023-01-20T07:38:40;-0.50;99.90
8872;DHT22;4472;52.092;9.820;2023-01-20T07:41:27;-0.50;99.90
8872;DHT22;4472;52.092;9.820;2023-01-20T07:44:15;-0.60;99.90
8872;DHT22;4472;52.092;9.820;2023-01-20T07:47:03;-0.60;99.90
8872;DHT22;4472;52.092;9.820;2023-01-20T07:49:50;-0.60;99.90
8872;DHT22;4472;52.092;9.820;2023-01-20T07:52:37;-0.60;99.90
8872;DHT22;4472;52.092;9.820;2023-01-20T07:55:26;-0.60;99.90
8872;DHT22;4472;52.092;9.820;2023-01-20T07:58:13;-0.60;99.90
8872;DHT22;4472;52.092;9.820;2023-01-20T08:01:05;-0.70;99.90
8872;DHT22;4472;52.092;9.820;2023-01-20T08:03:53;-0.70;99.90
8872;DHT22;4472;52.092;9.820;2023-01-20T08:06:41;-0.80;99.90
8872;DHT22;4472;52.092;9.820;2023-01-20T08:09:28;-0.80;99.90
8872;DHT22;4472;52.092;9.820;2023-01-20T08:12:16;-0.80;99.90
8872;DHT22;4472;52.092;9.820;2023-01-20T08:15:04;-0.80;99.90
8872;DHT22;4472;52.092;9.820;2023-01-20T08:17:52;-0.80;99.90
8872;DHT22;4472;52.092;9.820;2023-01-20T08:20:40;-0.80;99.90
8872;DHT22;4472;52.092;9.820;2023-01-20T08:23:27;-0.80;99.90
8872;DHT22;4472;52.092;9.820;2023-01-20T08:26:14;-0.70;99.90
8872;DHT22;4472;52.092;9.820;2023-01-20T08:29:05;-0.60;99.90
8872;DHT22;4472;52.092;9.820;2023-01-20T08:31:53;-0.60;99.90
8872;DHT22;4472;52.092;9.820;2023-01-20T08:34:40;2.90;99.90
8872;DHT22;4472;52.092;9.820;2023-01-20T08:37:28;-0.50;99.90
8872;DHT22;4472;52.092;9.820;2023-01-20T08:40:15;-0.30;99.90
8872;DHT22;4472;52.092;9.820;2023-01-20T08:43:02;-0.30;99.90
8872;DHT22;4472;52.092;9.820;2023-01-20T08:45:58;-0.20;99.90
8872;DHT22;4472;52.092;9.820;2023-01-20T08:48:49;-0.10;99.90
8872;DHT22;4472;52.092;9.820;2023-01-20T08:51:37;-0.10;99.90
8872;DHT22;4472;52.092;9.820;2023-01-20T08:54:25;0.00;99.90
8872;DHT22;4472;52.092;9.820;2023-01-20T08:57:14;0.00;99.90
8872;DHT22;4472;52.092;9.820;2023-01-20T09:00:02;0.00;99.90
8872;DHT22;4472;52.092;9.820;2023-01-20T09:02:51;0.10;99.90
8872;DHT22;4472;52.092;9.820;2023-01-20T09:05:38;0.20;99.90
8872;DHT22;4472;52.092;9.820;2023-01-20T09:08:25;0.40;99.90
8872;DHT22;4472;52.092;9.820;2023-01-20T09:11:15;0.50;99.90
8872;DHT22;4472;52.092;9.820;2023-01-20T09:14:02;0.60;99.90
8872;DHT22;4472;52.092;9.820;2023-01-20T09:16:50;0.80;99.90
8872;DHT22;4472;52.092;9.820;2023-01-20T09:19:38;1.00;99.90
8872;DHT22;4472;52.092;9.820;2023-01-20T09:22:25;1.20;99.90
8872;DHT22;4472;52.092;9.820;2023-01-20T09:25:12;1.50;99.90
8872;DHT22;4472;52.092;9.820;2023-01-20T09:28:00;1.60;99.90
8872;DHT22;4472;52.092;9.820;2023-01-20T09:30:47;1.60;99.90
8872;DHT22;4472;52.092;9.820;2023-01-20T09:33:36;1.60;99.90
8872;DHT22;4472;52.092;9.820;2023-01-20T09:36:25;1.60;99.90
8872;DHT22;4472;52.092;9.820;2023-01-20T09:39:15;1.60;99.90
8872;DHT22;4472;52.092;9.820;2023-01-20T09:42:27;1.70;99.90
8872;DHT22;4472;52.092;9.820;2023-01-20T09:45:37;2.00;99.90
8872;DHT22;4472;52.092;9.820;2023-01-20T09:48:32;2.00;99.90
8872;DHT22;4472;52.092;9.820;2023-01-20T09:51:47;2.20;99.90
8872;DHT22;4472;52.092;9.820;2023-01-20T09:54:57;2.50;99.90
8872;DHT22;4472;52.092;9.820;2023-01-20T09:57:47;2.80;99.90
8872;DHT22;4472;52.092;9.820;2023-01-20T10:00:38;2.80;99.90
8872;DHT22;4472;52.092;9.820;2023-01-20T10:03:31;2.90;99.90
8872;DHT22;4472;52.092;9.820;2023-01-20T10:06:24;2.90;99.90
8872;DHT22;4472;52.092;9.820;2023-01-20T10:09:18;2.80;99.90
8872;DHT22;4472;52.092;9.820;2023-01-20T10:12:11;2.80;99.90
8872;DHT22;4472;52.092;9.820;2023-01-20T10:15:05;2.80;99.90
8872;DHT22;4472;52.092;9.820;2023-01-20T10:17:57;2.80;99.90
8872;DHT22;4472;52.092;9.820;2023-01-20T10:20:49;3.00;99.90
8872;DHT22;4472;52.092;9.820;2023-01-20T10:23:41;2.90;99.90
8872;DHT22;4472;52.092;9.820;2023-01-20T10:26:35;3.10;99.90
8872;DHT22;4472;52.092;9.820;2023-01-20T10:29:29;2.90;99.90
8872;DHT22;4472;52.092;9.820;2023-01-20T10:32:23;3.00;99.90
8872;DHT22;4472;52.092;9.820;2023-01-20T10:35:15;3.00;99.90
8872;DHT22;4472;52.092;9.820;2023-01-20T10:38:07;3.00;99.90
8872;DHT22;4472;52.092;9.820;2023-01-20T10:40:59;3.00;99.90
8872;DHT22;4472;52.092;9.820;2023-01-20T10:43:49;3.10;99.90
8872;DHT22;4472;52.092;9.820;2023-01-20T10:46:55;3.10;99.90
8872;DHT22;4472;52.092;9.820;2023-01-20T10:53:14;3.10;99.90
8872;DHT22;4472;52.092;9.820;2023-01-20T10:56:33;3.20;99.90
8872;DHT22;4472;52.092;9.820;2023-01-20T10:59:27;3.30;99.90
8872;DHT22;4472;52.092;9.820;2023-01-20T11:02:19;3.20;99.90
8872;DHT22;4472;52.092;9.820;2023-01-20T11:05:15;3.10;99.90
8872;DHT22;4472;52.092;9.820;2023-01-20T11:08:06;3.00;99.90
8872;DHT22;4472;52.092;9.820;2023-01-20T11:10:58;3.10;99.90
8872;DHT22;4472;52.092;9.820;2023-01-20T11:13:47;3.10;99.90
8872;DHT22;4472;52.092;9.820;2023-01-20T11:16:38;3.10;99.90
8872;DHT22;4472;52.092;9.820;2023-01-20T11:19:43;3.10;99.90
8872;DHT22;4472;52.092;9.820;2023-01-20T11:22:34;3.10;99.90
8872;DHT22;4472;52.092;9.820;2023-01-20T11:25:24;3.10;99.90
8872;DHT22;4472;52.092;9.820;2023-01-20T11:28:15;3.10;99.90
8872;DHT22;4472;52.092;9.820;2023-01-20T11:31:04;3.00;99.90
8872;DHT22;4472;52.092;9.820;2023-01-20T11:33:58;2.90;99.90
8872;DHT22;4472;52.092;9.820;2023-01-20T11:36:46;2.80;99.90
8872;DHT22;4472;52.092;9.820;2023-01-20T11:39:35;2.80;99.90
8872;DHT22;4472;52.092;9.820;2023-01-20T11:42:24;2.80;99.90
8872;DHT22;4472;52.092;9.820;2023-01-20T11:45:29;2.80;99.90
8872;DHT22;4472;52.092;9.820;2023-01-20T11:48:19;2.90;99.90
8872;DHT22;4472;52.092;9.820;2023-01-20T11:51:18;3.00;99.90
8872;DHT22;4472;52.092;9.820;2023-01-20T11:54:07;3.00;99.90
8872;DHT22;4472;52.092;9.820;2023-01-20T11:56:57;3.10;99.90
8872;DHT22;4472;52.092;9.820;2023-01-20T11:59:47;3.10;99.90
8872;DHT22;4472;52.092;9.820;2023-01-20T12:02:36;3.20;99.90
8872;DHT22;4472;52.092;9.820;2023-01-20T12:05:29;3.20;99.90
8872;DHT22;4472;52.092;9.820;2023-01-20T12:08:25;3.30;99.90
8872;DHT22;4472;52.092;9.820;2023-01-20T12:11:18;3.30;99.90
8872;DHT22;4472;52.092;9.820;2023-01-20T12:14:16;3.40;99.90
8872;DHT22;4472;52.092;9.820;2023-01-20T12:17:24;3.40;99.90
8872;DHT22;4472;52.092;9.820;2023-01-20T12:20:18;3.50;99.90
8872;DHT22;4472;52.092;9.820;2023-01-20T12:23:15;3.50;99.90
8872;DHT22;4472;52.092;9.820;2023-01-20T12:26:09;3.60;99.90
8872;DHT22;4472;52.092;9.820;2023-01-20T12:29:00;3.60;99.90
8872;DHT22;4472;52.092;9.820;2023-01-20T12:31:49;3.70;99.90
8872;DHT22;4472;52.092;9.820;2023-01-20T12:34:37;3.80;99.90
8872;DHT22;4472;52.092;9.820;2023-01-20T12:37:30;3.80;99.90
8872;DHT22;4472;52.092;9.820;2023-01-20T12:40:22;3.90;99.90
8872;DHT22;4472;52.092;9.820;2023-01-20T12:43:32;4.00;99.90
8872;DHT22;4472;52.092;9.820;2023-01-20T12:46:35;4.00;99.90
8872;DHT22;4472;52.092;9.820;2023-01-20T12:49:39;4.10;99.90
8872;DHT22;4472;52.092;9.820;2023-01-20T12:52:45;4.10;99.90
8872;DHT22;4472;52.092;9.820;2023-01-20T12:55:44;4.80;99.90
8872;DHT22;4472;52.092;9.820;2023-01-20T12:58:44;4.20;99.90
8872;DHT22;4472;52.092;9.820;2023-01-20T13:01:46;4.60;99.90
8872;DHT22;4472;52.092;9.820;2023-01-20T13:05:07;4.30;99.90
8872;DHT22;4472;52.092;9.820;2023-01-20T13:08:09;4.20;99.90
8872;DHT22;4472;52.092;9.820;2023-01-20T13:11:06;4.20;99.90
8872;DHT22;4472;52.092;9.820;2023-01-20T13:14:21;4.20;99.90
8872;DHT22;4472;52.092;9.820;2023-01-20T13:17:16;4.20;99.90
8872;DHT22;4472;52.092;9.820;2023-01-20T13:20:15;4.20;99.90
8872;DHT22;4472;52.092;9.820;2023-01-20T13:23:05;4.20;99.90
8872;DHT22;4472;52.092;9.820;2023-01-20T13:25:54;4.10;99.90
8872;DHT22;4472;52.092;9.820;2023-01-20T13:28:50;4.10;99.90
8872;DHT22;4472;52.092;9.820;2023-01-20T13:31:43;4.00;99.90
8872;DHT22;4472;52.092;9.820;2023-01-20T13:34:34;4.00;99.90
8872;DHT22;4472;52.092;9.820;2023-01-20T13:37:35;3.90;99.90
8872;DHT22;4472;52.092;9.820;2023-01-20T13:40:50;3.90;99.90
8872;DHT22;4472;52.092;9.820;2023-01-20T13:43:55;3.90;99.90
8872;DHT22;4472;52.092;9.820;2023-01-20T13:46:46;3.90;99.90
8872;DHT22;4472;52.092;9.820;2023-01-20T13:49:47;3.90;99.90
8872;DHT22;4472;52.092;9.820;2023-01-20T13:53:11;4.00;99.90
8872;DHT22;4472;52.092;9.820;2023-01-20T13:56:00;4.00;99.90
8872;DHT22;4472;52.092;9.820;2023-01-20T13:58:48;4.00;99.90
8872;DHT22;4472;52.092;9.820;2023-01-20T14:01:35;4.00;99.90
8872;DHT22;4472;52.092;9.820;2023-01-20T14:04:25;4.00;99.90
8872;DHT22;4472;52.092;9.820;2023-01-20T14:07:21;3.60;99.90
8872;DHT22;4472;52.092;9.820;2023-01-20T14:10:11;3.90;99.90
8872;DHT22;4472;52.092;9.820;2023-01-20T14:12:58;3.90;99.90
8872;DHT22;4472;52.092;9.820;2023-01-20T14:15:48;3.90;99.90
8872;DHT22;4472;52.092;9.820;2023-01-20T14:18:36;3.90;99.90
8872;DHT22;4472;52.092;9.820;2023-01-20T14:21:29;3.90;99.90
8872;DHT22;4472;52.092;9.820;2023-01-20T14:24:26;3.90;99.90
8872;DHT22;4472;52.092;9.820;2023-01-20T14:27:17;3.90;99.90
8872;DHT22;4472;52.092;9.820;2023-01-20T14:30:13;3.90;99.90
8872;DHT22;4472;52.092;9.820;2023-01-20T14:33:07;3.90;99.90
8872;DHT22;4472;52.092;9.820;2023-01-20T14:35:56;3.90;99.90
8872;DHT22;4472;52.092;9.820;2023-01-20T14:38:48;3.90;99.90
8872;DHT22;4472;52.092;9.820;2023-01-20T14:41:45;3.80;99.90
8872;DHT22;4472;52.092;9.820;2023-01-20T14:44:33;3.80;99.90
8872;DHT22;4472;52.092;9.820;2023-01-20T14:47:22;3.80;99.90
8872;DHT22;4472;52.092;9.820;2023-01-20T14:50:12;3.70;99.90
8872;DHT22;4472;52.092;9.820;2023-01-20T14:53:00;3.60;99.90
8872;DHT22;4472;52.092;9.820;2023-01-20T14:55:59;3.60;99.90
8872;DHT22;4472;52.092;9.820;2023-01-20T14:58:47;3.50;99.90
8872;DHT22;4472;52.092;9.820;2023-01-20T15:01:35;3.50;99.90
8872;DHT22;4472;52.092;9.820;2023-01-20T15:04:22;3.40;99.90
8872;DHT22;4472;52.092;9.820;2023-01-20T15:07:16;3.60;99.90
8872;DHT22;4472;52.092;9.820;2023-01-20T15:10:06;3.30;99.90
8872;DHT22;4472;52.092;9.820;2023-01-20T15:12:56;3.30;99.90
8872;DHT22;4472;52.092;9.820;2023-01-20T15:15:44;3.20;99.90
8872;DHT22;4472;52.092;9.820;2023-01-20T15:18:31;3.20;99.90
8872;DHT22;4472;52.092;9.820;2023-01-20T15:21:24;3.10;99.90
8872;DHT22;4472;52.092;9.820;2023-01-20T15:24:13;3.10;99.90
8872;DHT22;4472;52.092;9.820;2023-01-20T15:27:01;3.00;99.90
8872;DHT22;4472;52.092;9.820;2023-01-20T15:30:15;3.00;99.90
8872;DHT22;4472;52.092;9.820;2023-01-20T15:35:55;3.00;99.90
8872;DHT22;4472;52.092;9.820;2023-01-20T15:38:43;3.00;99.90
8872;DHT22;4472;52.092;9.820;2023-01-20T15:41:30;2.90;99.90
8872;DHT22;4472;52.092;9.820;2023-01-20T15:44:17;2.90;99.90
8872;DHT22;4472;52.092;9.820;2023-01-20T15:47:11;2.90;99.90
8872;DHT22;4472;52.092;9.820;2023-01-20T15:50:02;2.80;99.90
8872;DHT22;4472;52.092;9.820;2023-01-20T15:52:50;2.70;99.90
8872;DHT22;4472;52.092;9.820;2023-01-20T15:55:46;2.70;99.90
8872;DHT22;4472;52.092;9.820;2023-01-20T15:58:36;2.70;99.90
8872;DHT22;4472;52.092;9.820;2023-01-20T16:01:24;2.70;99.90
8872;DHT22;4472;52.092;9.820;2023-01-20T16:04:15;2.70;99.90
8872;DHT22;4472;52.092;9.820;2023-01-20T16:07:02;2.70;99.90
8872;DHT22;4472;52.092;9.820;2023-01-20T16:09:49;2.70;99.90
8872;DHT22;4472;52.092;9.820;2023-01-20T16:12:36;2.70;99.90
8872;DHT22;4472;52.092;9.820;2023-01-20T16:15:23;2.70;99.90
8872;DHT22;4472;52.092;9.820;2023-01-20T16:18:12;2.60;99.90
8872;DHT22;4472;52.092;9.820;2023-01-20T16:21:01;2.60;99.90
8872;DHT22;4472;52.092;9.820;2023-01-20T16:23:49;2.60;99.90
8872;DHT22;4472;52.092;9.820;2023-01-20T16:26:37;2.80;99.90
8872;DHT22;4472;52.092;9.820;2023-01-20T16:29:24;1.70;99.90
8872;DHT22;4472;52.092;9.820;2023-01-20T16:32:11;2.60;99.90
8872;DHT22;4472;52.092;9.820;2023-01-20T16:34:59;2.60;99.90
8872;DHT22;4472;52.092;9.820;2023-01-20T16:37:47;2.60;99.90
8872;DHT22;4472;52.092;9.820;2023-01-20T16:40:35;2.60;99.90
8872;DHT22;4472;52.092;9.820;2023-01-20T16:43:22;2.50;99.90
8872;DHT22;4472;52.092;9.820;2023-01-20T16:46:13;2.90;99.90
8872;DHT22;4472;52.092;9.820;2023-01-20T16:49:01;2.50;99.90
8872;DHT22;4472;52.092;9.820;2023-01-20T16:51:49;2.40;99.90
8872;DHT22;4472;52.092;9.820;2023-01-20T16:54:37;2.40;99.90
8872;DHT22;4472;52.092;9.820;2023-01-20T16:57:25;2.40;99.90
8872;DHT22;4472;52.092;9.820;2023-01-20T17:00:13;2.80;99.90
8872;DHT22;4472;52.092;9.820;2023-01-20T17:03:00;2.30;99.90
8872;DHT22;4472;52.092;9.820;2023-01-20T17:05:48;2.30;99.90
8872;DHT22;4472;52.092;9.820;2023-01-20T17:08:35;2.30;99.90
8872;DHT22;4472;52.092;9.820;2023-01-20T17:11:25;2.30;99.90
8872;DHT22;4472;52.092;9.820;2023-01-20T17:14:12;2.30;99.90
8872;DHT22;4472;52.092;9.820;2023-01-20T17:17:00;2.30;99.90
8872;DHT22;4472;52.092;9.820;2023-01-20T17:19:47;2.40;99.90
8872;DHT22;4472;52.092;9.820;2023-01-20T17:22:35;2.40;99.90
8872;DHT22;4472;52.092;9.820;2023-01-20T17:25:23;2.40;99.90
8872;DHT22;4472;52.092;9.820;2023-01-20T17:28:12;2.50;99.90
8872;DHT22;4472;52.092;9.820;2023-01-20T17:31:00;2.40;99.90
8872;DHT22;4472;52.092;9.820;2023-01-20T17:33:48;2.40;99.90
8872;DHT22;4472;52.092;9.820;2023-01-20T17:36:36;2.40;99.90
8872;DHT22;4472;52.092;9.820;2023-01-20T17:39:26;2.40;99.90
8872;DHT22;4472;52.092;9.820;2023-01-20T17:42:14;2.30;99.90
8872;DHT22;4472;52.092;9.820;2023-01-20T17:45:03;2.30;99.90
8872;DHT22;4472;52.092;9.820;2023-01-20T17:47:51;2.30;99.90
8872;DHT22;4472;52.092;9.820;2023-01-20T17:50:38;2.30;99.90
8872;DHT22;4472;52.092;9.820;2023-01-20T17:53:26;2.30;99.90
8872;DHT22;4472;52.092;9.820;2023-01-20T17:56:13;2.20;99.90
8872;DHT22;4472;52.092;9.820;2023-01-20T17:59:01;2.20;99.90
8872;DHT22;4472;52.092;9.820;2023-01-20T18:01:51;2.20;99.90
8872;DHT22;4472;52.092;9.820;2023-01-20T18:04:39;2.10;99.90
8872;DHT22;4472;52.092;9.820;2023-01-20T18:07:26;2.10;99.90
8872;DHT22;4472;52.092;9.820;2023-01-20T18:10:13;2.10;99.90
8872;DHT22;4472;52.092;9.820;2023-01-20T18:13:00;2.10;99.90
8872;DHT22;4472;52.092;9.820;2023-01-20T18:15:48;2.00;99.90
8872;DHT22;4472;52.092;9.820;2023-01-20T18:18:36;2.00;99.90
8872;DHT22;4472;52.092;9.820;2023-01-20T18:21:25;2.00;99.90
8872;DHT22;4472;52.092;9.820;2023-01-20T18:24:13;2.00;99.90
8872;DHT22;4472;52.092;9.820;2023-01-20T18:27:01;1.90;99.90
8872;DHT22;4472;52.092;9.820;2023-01-20T18:29:48;2.40;99.90
8872;DHT22;4472;52.092;9.820;2023-01-20T18:32:36;1.80;99.90
8872;DHT22;4472;52.092;9.820;2023-01-20T18:35:24;1.80;99.90
8872;DHT22;4472;52.092;9.820;2023-01-20T18:38:11;1.80;99.90
8872;DHT22;4472;52.092;9.820;2023-01-20T18:41:00;1.70;99.90
8872;DHT22;4472;52.092;9.820;2023-01-20T18:43:48;1.70;99.90
8872;DHT22;4472;52.092;9.820;2023-01-20T18:46:36;1.60;99.90
8872;DHT22;4472;52.092;9.820;2023-01-20T18:49:23;1.50;99.90
8872;DHT22;4472;52.092;9.820;2023-01-20T18:52:11;1.60;99.90
8872;DHT22;4472;52.092;9.820;2023-01-20T18:54:59;1.50;99.90
8872;DHT22;4472;52.092;9.820;2023-01-20T18:57:46;1.30;99.90
8872;DHT22;4472;52.092;9.820;2023-01-20T19:00:33;1.20;99.90